createdAt,value
2023-03-22T00:01:25.558Z,25.15
2023-03-22T00:03:53.720Z,25.88
2023-03-22T00:06:22.049Z,22.48
2023-03-22T00:08:51.497Z,23.23
2023-03-22T00:11:20.811Z,20.88
2023-03-22T00:13:52.648Z,24.00
2023-03-22T00:16:21.194Z,25.70
2023-03-22T00:18:49.272Z,19.42
2023-03-22T00:21:18.075Z,19.75
2023-03-22T00:23:46.345Z,23.75
2023-03-22T00:26:15.499Z,21.23
2023-03-22T00:28:44.322Z,23.67
2023-03-22T00:31:13.747Z,21.45
2023-03-22T00:33:41.929Z,20.67
2023-03-22T00:36:13.485Z,25.02
2023-03-22T00:38:43.213Z,22.70
2023-03-22T00:41:13.814Z,21.75
2023-03-22T00:43:42.407Z,26.50
2023-03-22T00:46:10.765Z,23.65
2023-03-22T00:48:40.372Z,23.50
2023-03-22T00:51:09.661Z,25.08
2023-03-22T00:53:42.342Z,21.77
2023-03-22T00:56:13.763Z,25.35
2023-03-22T00:58:49.865Z,24.05
2023-03-22T01:01:18.137Z,26.75
2023-03-22T01:03:50.655Z,23.02
2023-03-22T01:06:19.551Z,18.50
2023-03-22T01:08:50.868Z,19.60
2023-03-22T01:11:19.424Z,24.25
2023-03-22T01:13:47.967Z,24.42
2023-03-22T01:16:16.046Z,23.88
2023-03-22T01:18:44.129Z,19.48
2023-03-22T01:21:13.925Z,22.70
2023-03-22T01:23:42.192Z,24.85
2023-03-22T01:26:10.114Z,20.48
2023-03-22T01:28:40.547Z,23.73
2023-03-22T01:31:08.825Z,27.67
2023-03-22T01:33:36.870Z,22.48
2023-03-22T01:36:05.475Z,22.17
2023-03-22T01:38:37.068Z,23.98
2023-03-22T01:41:05.293Z,24.92
2023-03-22T01:43:37.322Z,22.45
2023-03-22T01:46:05.949Z,24.67
2023-03-22T01:48:37.088Z,24.20
2023-03-22T01:51:08.868Z,25.23
2023-03-22T01:53:49.123Z,25.75
2023-03-22T01:56:20.573Z,20.17
2023-03-22T01:58:50.271Z,28.77
2023-03-22T02:01:23.766Z,20.35
2023-03-22T02:03:59.475Z,27.52
2023-03-22T02:09:09.412Z,22.83
2023-03-22T02:11:41.561Z,18.75
2023-03-22T02:14:37.934Z,20.17
2023-03-22T02:17:32.030Z,24.20
2023-03-22T02:20:47.088Z,22.17
2023-03-22T02:24:02.617Z,22.83
2023-03-22T02:27:07.557Z,21.08
2023-03-22T02:32:27.375Z,18.98
2023-03-22T02:35:22.385Z,19.40
2023-03-22T02:38:14.123Z,19.83
2023-03-22T02:40:52.022Z,22.67
2023-03-22T02:43:31.122Z,21.95
2023-03-22T02:46:06.888Z,21.02
2023-03-22T02:48:41.475Z,18.17
2023-03-22T02:51:14.388Z,20.60
2023-03-22T02:53:47.436Z,20.42
2023-03-22T02:56:23.677Z,21.30
2023-03-22T02:58:54.707Z,20.95
2023-03-22T03:01:26.638Z,22.40
2023-03-22T03:03:59.317Z,19.20
2023-03-22T03:06:33.378Z,21.80
2023-03-22T03:09:05.287Z,21.52
2023-03-22T03:11:34.774Z,20.50
2023-03-22T03:14:02.771Z,20.58
2023-03-22T03:16:35.124Z,18.77
2023-03-22T03:21:46.475Z,18.40
2023-03-22T03:24:21.772Z,22.13
2023-03-22T03:26:58.972Z,19.35
2023-03-22T03:29:34.250Z,19.35
2023-03-22T03:32:08.306Z,18.98
2023-03-22T03:34:49.538Z,22.42
2023-03-22T03:37:20.959Z,20.88
2023-03-22T03:39:53.940Z,21.48
2023-03-22T03:42:26.809Z,20.67
2023-03-22T03:44:55.357Z,23.10
2023-03-22T03:47:24.493Z,19.55
2023-03-22T03:49:52.590Z,23.92
2023-03-22T03:52:24.587Z,22.08
2023-03-22T03:54:52.982Z,22.23
2023-03-22T03:57:28.962Z,22.30
2023-03-22T03:59:56.926Z,21.30
2023-03-22T04:02:59.389Z,19.75
2023-03-22T04:05:54.369Z,17.80
2023-03-22T04:08:23.237Z,20.77
2023-03-22T04:10:51.852Z,20.65
2023-03-22T04:13:24.621Z,20.10
2023-03-22T04:18:22.480Z,21.48
2023-03-22T04:20:53.489Z,21.83
2023-03-22T04:23:23.122Z,19.87
2023-03-22T04:25:52.228Z,20.42
2023-03-22T04:28:34.373Z,25.38
2023-03-22T04:31:04.124Z,20.48
2023-03-22T04:33:54.941Z,25.33
2023-03-22T04:36:36.481Z,20.95
2023-03-22T04:39:24.465Z,20.45
2023-03-22T04:42:10.687Z,23.38
2023-03-22T04:44:41.046Z,24.85
2023-03-22T04:47:09.302Z,20.08
2023-03-22T04:49:37.240Z,24.00
2023-03-22T04:52:05.271Z,17.55
2023-03-22T04:54:37.271Z,18.08
2023-03-22T04:57:06.116Z,21.25
2023-03-22T04:59:41.480Z,19.60
2023-03-22T05:02:11.219Z,23.40
2023-03-22T05:04:44.169Z,18.67
2023-03-22T05:07:28.931Z,19.27
2023-03-22T05:09:59.867Z,19.38
2023-03-22T05:12:27.770Z,19.30
2023-03-22T05:15:14.931Z,17.92
2023-03-22T05:17:43.420Z,16.50
2023-03-22T05:20:12.458Z,20.48
2023-03-22T05:22:42.377Z,18.75
2023-03-22T05:25:12.449Z,17.55
2023-03-22T05:27:44.815Z,16.83
2023-03-22T05:30:33.780Z,19.98
2023-03-22T05:33:12.203Z,18.20
2023-03-22T05:38:13.435Z,22.33
2023-03-22T05:40:46.600Z,19.75
2023-03-22T05:43:14.959Z,21.25
2023-03-22T05:45:49.151Z,18.40
2023-03-22T05:48:40.112Z,21.77
2023-03-22T05:51:09.726Z,20.90
2023-03-22T05:53:37.937Z,23.30
2023-03-22T05:56:15.606Z,19.45
2023-03-22T05:58:45.919Z,23.30
2023-03-22T06:01:20.497Z,22.58
2023-03-22T06:03:48.640Z,18.80
2023-03-22T06:06:29.922Z,21.95
2023-03-22T06:09:16.878Z,23.77
2023-03-22T06:11:48.683Z,18.10
2023-03-22T06:14:17.406Z,24.13
2023-03-22T06:17:00.362Z,22.65
2023-03-22T06:19:28.295Z,20.13
2023-03-22T06:21:57.353Z,22.92
2023-03-22T06:24:27.574Z,19.70
2023-03-22T06:26:55.919Z,24.08
2023-03-22T06:29:23.804Z,21.48
2023-03-22T06:31:54.760Z,21.15
2023-03-22T06:34:24.047Z,22.17
2023-03-22T06:36:51.987Z,20.00
2023-03-22T06:39:34.995Z,20.27
2023-03-22T06:42:03.938Z,20.88
2023-03-22T06:44:32.204Z,17.80
2023-03-22T06:47:10.067Z,22.50
2023-03-22T06:49:58.066Z,19.67
2023-03-22T06:52:35.231Z,19.88
2023-03-22T06:55:06.773Z,19.95
2023-03-22T06:57:35.339Z,24.67
2023-03-22T07:00:05.178Z,21.77
2023-03-22T07:02:33.251Z,21.08
2023-03-22T07:05:23.230Z,19.65
2023-03-22T07:07:51.369Z,22.40
2023-03-22T07:10:19.618Z,21.55
2023-03-22T07:12:48.025Z,20.25
2023-03-22T07:15:18.724Z,22.58
2023-03-22T07:17:53.890Z,18.50
2023-03-22T07:20:23.642Z,20.35
2023-03-22T07:22:52.003Z,22.27
2023-03-22T07:25:21.996Z,22.85
2023-03-22T07:27:56.689Z,20.50
2023-03-22T07:30:24.756Z,21.50
2023-03-22T07:32:52.858Z,23.98
2023-03-22T07:35:25.527Z,23.60
2023-03-22T07:37:55.217Z,15.93
2023-03-22T07:40:28.844Z,24.90
2023-03-22T07:42:59.034Z,20.70
2023-03-22T07:45:45.517Z,18.00
2023-03-22T07:48:32.569Z,18.98
2023-03-22T07:51:20.521Z,22.88
2023-03-22T07:53:48.808Z,18.27
2023-03-22T07:56:16.833Z,20.50
2023-03-22T07:58:44.772Z,21.42
2023-03-22T08:01:12.892Z,19.80
2023-03-22T08:03:50.856Z,22.27
2023-03-22T08:06:33.824Z,18.73
2023-03-22T08:09:01.966Z,20.00
2023-03-22T08:11:30.033Z,18.63
2023-03-22T08:13:59.553Z,21.52
2023-03-22T08:16:28.017Z,17.00
2023-03-22T08:18:57.017Z,13.57
2023-03-22T08:21:27.839Z,15.77
2023-03-22T08:23:59.097Z,17.60
2023-03-22T08:27:05.970Z,18.77
2023-03-22T08:29:42.971Z,20.30
2023-03-22T08:32:11.247Z,17.65
2023-03-22T08:34:39.851Z,16.52
2023-03-22T08:37:08.668Z,21.60
2023-03-22T08:39:38.785Z,16.67
2023-03-22T08:42:19.737Z,15.75
2023-03-22T08:44:47.699Z,17.30
2023-03-22T08:47:15.962Z,18.25
2023-03-22T08:49:44.914Z,17.95
2023-03-22T08:52:23.485Z,18.98
2023-03-22T08:54:53.511Z,13.85
2023-03-22T08:57:40.012Z,16.02
2023-03-22T09:00:21.396Z,13.68
2023-03-22T09:03:16.023Z,14.60
2023-03-22T09:05:45.597Z,15.15
2023-03-22T09:08:19.205Z,16.17
2023-03-22T09:10:52.268Z,14.88
2023-03-22T09:13:22.794Z,14.85
2023-03-22T09:15:56.698Z,12.90
2023-03-22T09:18:29.762Z,16.85
2023-03-22T09:21:01.773Z,16.52
2023-03-22T09:23:43.465Z,14.77
2023-03-22T09:26:13.856Z,14.50
2023-03-22T09:28:43.525Z,19.95
2023-03-22T09:31:11.940Z,15.27
2023-03-22T09:33:41.745Z,13.23
2023-03-22T09:36:11.920Z,13.93
2023-03-22T09:38:42.094Z,17.27
2023-03-22T09:41:17.029Z,10.82
2023-03-22T09:43:49.637Z,15.85
2023-03-22T09:46:25.861Z,14.97
2023-03-22T09:48:54.661Z,14.30
2023-03-22T09:51:34.602Z,14.75
2023-03-22T09:54:02.912Z,11.60
2023-03-22T09:56:33.436Z,14.75
2023-03-22T09:59:08.350Z,12.02
2023-03-22T10:01:46.637Z,13.38
2023-03-22T10:04:44.286Z,11.98
2023-03-22T10:07:20.332Z,11.93
2023-03-22T10:09:55.819Z,10.48
2023-03-22T10:12:30.478Z,11.27
2023-03-22T10:15:07.220Z,10.23
2023-03-22T10:17:37.526Z,14.63
2023-03-22T10:20:09.912Z,14.13
2023-03-22T10:22:44.571Z,10.70
2023-03-22T10:25:18.664Z,10.75
2023-03-22T10:27:50.784Z,11.23
2023-03-22T10:30:22.144Z,13.30
2023-03-22T10:32:58.235Z,11.10
2023-03-22T10:35:26.790Z,12.38
2023-03-22T10:37:56.454Z,10.50
2023-03-22T10:40:27.480Z,9.65
2023-03-22T10:43:00.614Z,7.90
2023-03-22T10:45:29.462Z,9.50
2023-03-22T10:48:02.874Z,9.77
2023-03-22T10:50:36.568Z,11.27
2023-03-22T10:53:07.434Z,11.80
2023-03-22T10:55:41.154Z,9.93
2023-03-22T10:58:15.651Z,10.73
2023-03-22T11:00:49.199Z,9.32
2023-03-22T11:03:30.991Z,8.48
2023-03-22T11:06:01.277Z,13.07
2023-03-22T11:08:29.178Z,11.27
2023-03-22T11:11:00.390Z,8.45
2023-03-22T11:13:29.985Z,9.43
2023-03-22T11:16:02.531Z,9.45
2023-03-22T11:18:35.793Z,8.75
2023-03-22T11:21:08.361Z,8.35
2023-03-22T11:23:39.491Z,11.83
2023-03-22T11:26:11.106Z,7.65
2023-03-22T11:28:46.822Z,7.95
2023-03-22T11:31:17.346Z,6.88
2023-03-22T11:33:57.453Z,6.78
2023-03-22T11:36:26.624Z,8.07
2023-03-22T11:38:58.603Z,6.88
2023-03-22T11:41:28.073Z,7.82
2023-03-22T11:44:02.095Z,8.02
2023-03-22T11:46:32.156Z,8.80
2023-03-22T11:49:03.634Z,5.70
2023-03-22T11:51:35.071Z,9.68
2023-03-22T11:54:09.565Z,5.22
2023-03-22T11:56:42.826Z,6.90
2023-03-22T11:59:16.611Z,6.00
2023-03-22T12:01:50.074Z,7.45
2023-03-22T12:04:21.033Z,7.03
2023-03-22T12:06:53.731Z,8.52
2023-03-22T12:09:30.310Z,8.48
2023-03-22T12:12:02.833Z,9.30
2023-03-22T12:14:41.455Z,8.23
2023-03-22T12:17:14.696Z,7.85
2023-03-22T12:22:24.064Z,7.63
2023-03-22T12:24:52.041Z,12.93
2023-03-22T12:27:24.281Z,10.05
2023-03-22T12:29:58.039Z,9.93
2023-03-22T12:32:29.082Z,12.55
2023-03-22T12:35:14.147Z,9.73
2023-03-22T12:37:48.129Z,10.32
2023-03-22T12:40:24.473Z,6.25
2023-03-22T12:43:00.610Z,7.43
2023-03-22T12:45:33.239Z,6.95
2023-03-22T12:48:09.111Z,5.88
2023-03-22T12:50:43.987Z,8.48
2023-03-22T12:53:16.261Z,7.82
2023-03-22T12:55:47.024Z,7.80
2023-03-22T12:58:19.537Z,8.23
2023-03-22T13:00:52.452Z,8.10
2023-03-22T13:03:28.796Z,6.30
2023-03-22T13:06:06.463Z,4.78
2023-03-22T13:09:13.520Z,8.02
2023-03-22T13:11:41.502Z,7.00
2023-03-22T13:14:13.086Z,8.40
2023-03-22T13:16:51.937Z,5.38
2023-03-22T13:19:33.871Z,6.30
2023-03-22T13:22:21.707Z,8.27
2023-03-22T13:25:07.266Z,5.45
2023-03-22T13:27:41.792Z,4.82
2023-03-22T13:30:22.897Z,5.90
2023-03-22T13:32:56.156Z,3.92
2023-03-22T13:35:28.318Z,6.15
2023-03-22T13:38:03.822Z,6.82
2023-03-22T13:40:36.881Z,5.15
2023-03-22T13:43:14.387Z,3.53
2023-03-22T13:46:08.890Z,6.95
2023-03-22T13:48:45.747Z,4.88
2023-03-22T13:51:16.856Z,6.50
2023-03-22T13:54:00.349Z,5.97
2023-03-22T13:59:04.908Z,5.70
2023-03-22T14:01:36.992Z,10.18
2023-03-22T14:04:11.291Z,7.03
2023-03-22T14:06:48.664Z,7.45
2023-03-22T14:09:25.102Z,6.28
2023-03-22T14:11:57.841Z,7.18
2023-03-22T14:14:30.657Z,5.13
2023-03-22T14:17:05.012Z,3.53
2023-03-22T14:19:35.916Z,3.47
